sensor_id;sensor_type;location;lat;lon;timestamp;pressure;altitude;pressure_sealevel;temperature;humidity
4326;BME280;58429;49.826;10.880;2023-06-14T00:00:45;98372;;;15.82;54.37
4326;BME280;58429;49.826;10.880;2023-06-14T00:01:46;98363;;;15.83;54.31
4326;BME280;58429;49.826;10.880;2023-06-14T00:02:45;98362;;;15.82;54.22
4326;BME280;58429;49.826;10.880;2023-06-14T00:03:45;98360;;;15.78;54.31
4326;BME280;58429;49.826;10.880;2023-06-14T00:04:45;98359;;;15.79;54.39
4326;BME280;58429;49.826;10.880;2023-06-14T00:05:45;98356;;;15.82;54.48
4326;BME280;58429;49.826;10.880;2023-06-14T00:06:45;98363;;;15.82;54.48
4326;BME280;58429;49.826;10.880;2023-06-14T00:07:45;98362;;;15.78;54.73
4326;BME280;58429;49.826;10.880;2023-06-14T00:08:45;98360;;;15.77;54.95
4326;BME280;58429;49.826;10.880;2023-06-14T00:09:45;98363;;;15.75;54.93
4326;BME280;58429;49.826;10.880;2023-06-14T00:10:45;98364;;;15.67;54.76
4326;BME280;58429;49.826;10.880;2023-06-14T00:11:45;98363;;;15.63;54.92
4326;BME280;58429;49.826;10.880;2023-06-14T00:12:45;98362;;;15.62;54.83
4326;BME280;58429;49.826;10.880;2023-06-14T00:13:45;98360;;;15.63;55.3
4326;BME280;58429;49.826;10.880;2023-06-14T00:14:45;98362;;;15.61;55.28
4326;BME280;58429;49.826;10.880;2023-06-14T00:15:46;98360;;;15.57;55.68
4326;BME280;58429;49.826;10.880;2023-06-14T00:16:45;98358;;;15.56;55.59
4326;BME280;58429;49.826;10.880;2023-06-14T00:17:45;98359;;;15.51;55.54
4326;BME280;58429;49.826;10.880;2023-06-14T00:18:45;98361;;;15.53;55.53
4326;BME280;58429;49.826;10.880;2023-06-14T00:19:46;98360;;;15.55;55.71
4326;BME280;58429;49.826;10.880;2023-06-14T00:20:45;98356;;;15.51;55.4
4326;BME280;58429;49.826;10.880;2023-06-14T00:21:45;98359;;;15.49;55.72
4326;BME280;58429;49.826;10.880;2023-06-14T00:22:45;98367;;;15.52;55.35
4326;BME280;58429;49.826;10.880;2023-06-14T00:23:45;98362;;;15.51;55.47
4326;BME280;58429;49.826;10.880;2023-06-14T00:24:46;98355;;;15.49;55.87
4326;BME280;58429;49.826;10.880;2023-06-14T00:25:46;98352;;;15.44;55.91
4326;BME280;58429;49.826;10.880;2023-06-14T00:26:45;98355;;;15.42;55.97
4326;BME280;58429;49.826;10.880;2023-06-14T00:27:45;98348;;;15.41;55.87
4326;BME280;58429;49.826;10.880;2023-06-14T00:28:45;98357;;;15.39;55.72
4326;BME280;58429;49.826;10.880;2023-06-14T00:29:46;98356;;;15.38;55.78
4326;BME280;58429;49.826;10.880;2023-06-14T00:30:45;98354;;;15.34;55.92
4326;BME280;58429;49.826;10.880;2023-06-14T00:31:45;98355;;;15.34;55.95
4326;BME280;58429;49.826;10.880;2023-06-14T00:32:45;98352;;;15.36;55.57
4326;BME280;58429;49.826;10.880;2023-06-14T00:33:46;98362;;;15.35;55.41
4326;BME280;58429;49.826;10.880;2023-06-14T00:34:45;98352;;;15.36;55.3
4326;BME280;58429;49.826;10.880;2023-06-14T00:35:45;98353;;;15.34;55.52
4326;BME280;58429;49.826;10.880;2023-06-14T00:36:45;98352;;;15.34;55.79
4326;BME280;58429;49.826;10.880;2023-06-14T00:37:45;98347;;;15.32;56.17
4326;BME280;58429;49.826;10.880;2023-06-14T00:38:45;98345;;;15.34;56.53
4326;BME280;58429;49.826;10.880;2023-06-14T00:39:45;98348;;;15.29;56.44
4326;BME280;58429;49.826;10.880;2023-06-14T00:40:46;98355;;;15.27;56.97
4326;BME280;58429;49.826;10.880;2023-06-14T00:41:45;98351;;;15.34;56.47
4326;BME280;58429;49.826;10.880;2023-06-14T00:42:45;98345;;;15.32;56.31
4326;BME280;58429;49.826;10.880;2023-06-14T00:43:46;98348;;;15.27;56.52
4326;BME280;58429;49.826;10.880;2023-06-14T00:44:45;98350;;;15.26;56.41
4326;BME280;58429;49.826;10.880;2023-06-14T00:45:45;98347;;;15.23;56.53
4326;BME280;58429;49.826;10.880;2023-06-14T00:46:45;98350;;;15.23;56.72
4326;BME280;58429;49.826;10.880;2023-06-14T00:47:46;98348;;;15.19;56.71
4326;BME280;58429;49.826;10.880;2023-06-14T00:48:45;98348;;;15.19;56.76
4326;BME280;58429;49.826;10.880;2023-06-14T00:49:46;98347;;;15.1;56.88
4326;BME280;58429;49.826;10.880;2023-06-14T00:50:45;98347;;;15.08;56.81
4326;BME280;58429;49.826;10.880;2023-06-14T00:51:45;98340;;;15.06;57.55
4326;BME280;58429;49.826;10.880;2023-06-14T00:52:45;98343;;;14.95;57.75
4326;BME280;58429;49.826;10.880;2023-06-14T00:53:45;98341;;;14.91;57.25
4326;BME280;58429;49.826;10.880;2023-06-14T00:54:46;98348;;;14.91;57.1
4326;BME280;58429;49.826;10.880;2023-06-14T00:55:46;98341;;;14.93;57.15
4326;BME280;58429;49.826;10.880;2023-06-14T00:56:45;98345;;;14.88;57.42
4326;BME280;58429;49.826;10.880;2023-06-14T00:57:45;98344;;;14.85;57.76
4326;BME280;58429;49.826;10.880;2023-06-14T00:58:45;98337;;;14.84;57.73
4326;BME280;58429;49.826;10.880;2023-06-14T00:59:46;98340;;;14.77;58.39
4326;BME280;58429;49.826;10.880;2023-06-14T01:00:45;98341;;;14.71;58.43
4326;BME280;58429;49.826;10.880;2023-06-14T01:01:45;98343;;;14.62;59.11
4326;BME280;58429;49.826;10.880;2023-06-14T01:02:45;98346;;;14.6;58.37
4326;BME280;58429;49.826;10.880;2023-06-14T01:03:45;98342;;;14.58;58.76
4326;BME280;58429;49.826;10.880;2023-06-14T01:04:47;98341;;;14.51;59.16
4326;BME280;58429;49.826;10.880;2023-06-14T01:05:45;98335;;;14.51;58.79
4326;BME280;58429;49.826;10.880;2023-06-14T01:06:48;98341;;;14.48;58.71
4326;BME280;58429;49.826;10.880;2023-06-14T01:07:50;98349;;;14.49;59.03
4326;BME280;58429;49.826;10.880;2023-06-14T01:08:47;98346;;;14.38;59.2
4326;BME280;58429;49.826;10.880;2023-06-14T01:09:47;98345;;;14.38;59.37
4326;BME280;58429;49.826;10.880;2023-06-14T01:10:47;98342;;;14.31;59.72
4326;BME280;58429;49.826;10.880;2023-06-14T01:11:48;98349;;;14.27;59.82
4326;BME280;58429;49.826;10.880;2023-06-14T01:12:47;98341;;;14.25;60.13
4326;BME280;58429;49.826;10.880;2023-06-14T01:13:46;98340;;;14.16;60.12
4326;BME280;58429;49.826;10.880;2023-06-14T01:14:45;98345;;;14.11;60.2
4326;BME280;58429;49.826;10.880;2023-06-14T01:15:45;98343;;;14.14;59.99
4326;BME280;58429;49.826;10.880;2023-06-14T01:16:46;98348;;;14.11;59.91
4326;BME280;58429;49.826;10.880;2023-06-14T01:17:45;98346;;;14.11;59.79
4326;BME280;58429;49.826;10.880;2023-06-14T01:18:46;98344;;;14.12;59.64
4326;BME280;58429;49.826;10.880;2023-06-14T01:19:45;98342;;;14.16;59.43
4326;BME280;58429;49.826;10.880;2023-06-14T01:20:46;98339;;;14.12;59.67
4326;BME280;58429;49.826;10.880;2023-06-14T01:21:46;98343;;;14.1;59.58
4326;BME280;58429;49.826;10.880;2023-06-14T01:22:49;98348;;;14.11;59.55
4326;BME280;58429;49.826;10.880;2023-06-14T01:23:45;98349;;;14.11;59.25
4326;BME280;58429;49.826;10.880;2023-06-14T01:24:45;98343;;;14.14;59.35
4326;BME280;58429;49.826;10.880;2023-06-14T01:25:46;98342;;;14.09;59.4
4326;BME280;58429;49.826;10.880;2023-06-14T01:26:45;98348;;;14.06;59.64
4326;BME280;58429;49.826;10.880;2023-06-14T01:27:46;98345;;;14.06;59.34
4326;BME280;58429;49.826;10.880;2023-06-14T01:28:46;98337;;;14.09;59.17
4326;BME280;58429;49.826;10.880;2023-06-14T01:29:46;98345;;;14.09;59.44
4326;BME280;58429;49.826;10.880;2023-06-14T01:30:46;98344;;;14.09;59.38
4326;BME280;58429;49.826;10.880;2023-06-14T01:31:46;98347;;;14.06;59.28
4326;BME280;58429;49.826;10.880;2023-06-14T01:32:46;98347;;;14.04;59.32
4326;BME280;58429;49.826;10.880;2023-06-14T01:33:45;98348;;;14.04;59.26
4326;BME280;58429;49.826;10.880;2023-06-14T01:34:46;98348;;;14;59.56
4326;BME280;58429;49.826;10.880;2023-06-14T01:35:46;98353;;;13.96;59.66
4326;BME280;58429;49.826;10.880;2023-06-14T01:36:45;98349;;;13.93;59.58
4326;BME280;58429;49.826;10.880;2023-06-14T01:37:46;98353;;;13.91;59.58
4326;BME280;58429;49.826;10.880;2023-06-14T01:38:46;98352;;;13.87;59.92
4326;BME280;58429;49.826;10.880;2023-06-14T01:39:45;98349;;;13.91;59.59
4326;BME280;58429;49.826;10.880;2023-06-14T01:40:46;98350;;;13.88;59.79
4326;BME280;58429;49.826;10.880;2023-06-14T01:41:45;98347;;;13.89;59.86
4326;BME280;58429;49.826;10.880;2023-06-14T01:42:46;98352;;;13.86;59.91
4326;BME280;58429;49.826;10.880;2023-06-14T01:43:45;98346;;;13.91;59.91
4326;BME280;58429;49.826;10.880;2023-06-14T01:44:46;98350;;;13.91;59.88
4326;BME280;58429;49.826;10.880;2023-06-14T01:45:46;98350;;;13.93;59.88
4326;BME280;58429;49.826;10.880;2023-06-14T01:46:45;98344;;;13.9;59.71
4326;BME280;58429;49.826;10.880;2023-06-14T01:47:45;98347;;;13.89;60.26
4326;BME280;58429;49.826;10.880;2023-06-14T01:48:45;98341;;;13.89;60.17
4326;BME280;58429;49.826;10.880;2023-06-14T01:49:46;98343;;;13.93;60.76
4326;BME280;58429;49.826;10.880;2023-06-14T01:50:46;98344;;;13.89;60.35
4326;BME280;58429;49.826;10.880;2023-06-14T01:51:46;98346;;;13.85;60.37
4326;BME280;58429;49.826;10.880;2023-06-14T01:52:46;98343;;;13.83;60.4
4326;BME280;58429;49.826;10.880;2023-06-14T01:53:46;98347;;;13.78;61.01
4326;BME280;58429;49.826;10.880;2023-06-14T01:54:46;98349;;;13.68;61.09
4326;BME280;58429;49.826;10.880;2023-06-14T01:55:46;98350;;;13.59;61.47
4326;BME280;58429;49.826;10.880;2023-06-14T01:56:45;98347;;;13.54;61.88
4326;BME280;58429;49.826;10.880;2023-06-14T01:57:45;98347;;;13.46;61.48
4326;BME280;58429;49.826;10.880;2023-06-14T01:58:46;98349;;;13.44;61.41
4326;BME280;58429;49.826;10.880;2023-06-14T01:59:45;98345;;;13.41;61.98
4326;BME280;58429;49.826;10.880;2023-06-14T02:00:46;98349;;;13.4;61.62
4326;BME280;58429;49.826;10.880;2023-06-14T02:01:45;98345;;;13.39;61.56
4326;BME280;58429;49.826;10.880;2023-06-14T02:02:45;98346;;;13.38;61.81
4326;BME280;58429;49.826;10.880;2023-06-14T02:03:46;98340;;;13.35;61.95
4326;BME280;58429;49.826;10.880;2023-06-14T02:04:45;98349;;;13.34;62.06
4326;BME280;58429;49.826;10.880;2023-06-14T02:05:46;98348;;;13.33;61.63
4326;BME280;58429;49.826;10.880;2023-06-14T02:06:46;98349;;;13.34;61.37
4326;BME280;58429;49.826;10.880;2023-06-14T02:07:45;98347;;;13.34;61.35
4326;BME280;58429;49.826;10.880;2023-06-14T02:08:46;98349;;;13.32;61.33
4326;BME280;58429;49.826;10.880;2023-06-14T02:09:46;98348;;;13.26;61.43
4326;BME280;58429;49.826;10.880;2023-06-14T02:10:45;98351;;;13.23;62.06
4326;BME280;58429;49.826;10.880;2023-06-14T02:11:46;98346;;;13.16;62.07
4326;BME280;58429;49.826;10.880;2023-06-14T02:12:46;98349;;;13.15;61.91
4326;BME280;58429;49.826;10.880;2023-06-14T02:13:46;98343;;;13.15;62.17
4326;BME280;58429;49.826;10.880;2023-06-14T02:14:46;98348;;;13.13;62.24
4326;BME280;58429;49.826;10.880;2023-06-14T02:15:46;98351;;;13.18;62.28
4326;BME280;58429;49.826;10.880;2023-06-14T02:16:46;98347;;;13.14;62.46
4326;BME280;58429;49.826;10.880;2023-06-14T02:17:46;98353;;;13.11;62.52
4326;BME280;58429;49.826;10.880;2023-06-14T02:18:45;98348;;;13.08;63.03
4326;BME280;58429;49.826;10.880;2023-06-14T02:19:46;98347;;;13.06;63.67
4326;BME280;58429;49.826;10.880;2023-06-14T02:20:46;98351;;;12.94;64.97
4326;BME280;58429;49.826;10.880;2023-06-14T02:21:46;98358;;;12.83;65.65
4326;BME280;58429;49.826;10.880;2023-06-14T02:22:45;98356;;;12.78;65.88
4326;BME280;58429;49.826;10.880;2023-06-14T02:23:46;98356;;;12.66;66.3
4326;BME280;58429;49.826;10.880;2023-06-14T02:24:46;98359;;;12.57;65.98
4326;BME280;58429;49.826;10.880;2023-06-14T02:25:46;98349;;;12.58;65.75
4326;BME280;58429;49.826;10.880;2023-06-14T02:26:46;98350;;;12.58;65.53
4326;BME280;58429;49.826;10.880;2023-06-14T02:27:46;98350;;;12.59;65.45
4326;BME280;58429;49.826;10.880;2023-06-14T02:28:46;98346;;;12.61;65.16
4326;BME280;58429;49.826;10.880;2023-06-14T02:29:45;98354;;;12.64;64.94
4326;BME280;58429;49.826;10.880;2023-06-14T02:30:46;98356;;;12.69;64.83
4326;BME280;58429;49.826;10.880;2023-06-14T02:31:45;98358;;;12.73;64.76
4326;BME280;58429;49.826;10.880;2023-06-14T02:32:45;98356;;;12.8;64.42
4326;BME280;58429;49.826;10.880;2023-06-14T02:33:46;98355;;;12.84;64.32
4326;BME280;58429;49.826;10.880;2023-06-14T02:34:45;98358;;;12.82;63.83
4326;BME280;58429;49.826;10.880;2023-06-14T02:35:46;98359;;;12.81;63.94
4326;BME280;58429;49.826;10.880;2023-06-14T02:36:46;98356;;;12.82;63.83
4326;BME280;58429;49.826;10.880;2023-06-14T02:37:45;98366;;;12.81;63.9
4326;BME280;58429;49.826;10.880;2023-06-14T02:38:46;98362;;;12.78;64.57
4326;BME280;58429;49.826;10.880;2023-06-14T02:39:46;98359;;;12.77;64.25
4326;BME280;58429;49.826;10.880;2023-06-14T02:40:46;98356;;;12.77;64.15
4326;BME280;58429;49.826;10.880;2023-06-14T02:41:46;98364;;;12.77;64.28
4326;BME280;58429;49.826;10.880;2023-06-14T02:42:45;98359;;;12.66;65.22
4326;BME280;58429;49.826;10.880;2023-06-14T02:43:46;98367;;;12.65;64.75
4326;BME280;58429;49.826;10.880;2023-06-14T02:44:46;98361;;;12.69;64.65
4326;BME280;58429;49.826;10.880;2023-06-14T02:45:45;98366;;;12.66;64.81
4326;BME280;58429;49.826;10.880;2023-06-14T02:46:46;98363;;;12.64;64.5
4326;BME280;58429;49.826;10.880;2023-06-14T02:47:46;98364;;;12.59;64.72
4326;BME280;58429;49.826;10.880;2023-06-14T02:48:46;98365;;;12.57;65.49
4326;BME280;58429;49.826;10.880;2023-06-14T02:49:46;98362;;;12.57;64.78
4326;BME280;58429;49.826;10.880;2023-06-14T02:50:46;98365;;;12.59;64.81
4326;BME280;58429;49.826;10.880;2023-06-14T02:51:46;98366;;;12.61;64.71
4326;BME280;58429;49.826;10.880;2023-06-14T02:52:46;98367;;;12.6;64.81
4326;BME280;58429;49.826;10.880;2023-06-14T02:53:46;98366;;;12.53;65.21
4326;BME280;58429;49.826;10.880;2023-06-14T02:54:46;98368;;;12.55;64.97
4326;BME280;58429;49.826;10.880;2023-06-14T02:55:45;98370;;;12.53;65.06
4326;BME280;58429;49.826;10.880;2023-06-14T02:56:46;98362;;;12.54;64.92
4326;BME280;58429;49.826;10.880;2023-06-14T02:57:46;98370;;;12.45;65.44
4326;BME280;58429;49.826;10.880;2023-06-14T02:58:46;98376;;;12.36;65.88
4326;BME280;58429;49.826;10.880;2023-06-14T02:59:46;98374;;;12.33;66.07
4326;BME280;58429;49.826;10.880;2023-06-14T03:00:45;98382;;;12.3;65.82
4326;BME280;58429;49.826;10.880;2023-06-14T03:01:45;98375;;;12.34;66.02
4326;BME280;58429;49.826;10.880;2023-06-14T03:02:46;98376;;;12.3;66.44
4326;BME280;58429;49.826;10.880;2023-06-14T03:03:46;98370;;;12.26;66.52
4326;BME280;58429;49.826;10.880;2023-06-14T03:04:46;98380;;;12.21;66.36
4326;BME280;58429;49.826;10.880;2023-06-14T03:05:46;98386;;;12.24;66.1
4326;BME280;58429;49.826;10.880;2023-06-14T03:06:46;98377;;;12.26;65.83
4326;BME280;58429;49.826;10.880;2023-06-14T03:07:46;98377;;;12.29;65.53
4326;BME280;58429;49.826;10.880;2023-06-14T03:08:46;98381;;;12.3;65.41
4326;BME280;58429;49.826;10.880;2023-06-14T03:09:46;98375;;;12.3;65.24
4326;BME280;58429;49.826;10.880;2023-06-14T03:10:46;98383;;;12.3;65
4326;BME280;58429;49.826;10.880;2023-06-14T03:11:46;98382;;;12.29;65.41
4326;BME280;58429;49.826;10.880;2023-06-14T03:12:46;98382;;;12.26;65.38
4326;BME280;58429;49.826;10.880;2023-06-14T03:13:46;98385;;;12.27;65.11
4326;BME280;58429;49.826;10.880;2023-06-14T03:14:46;98383;;;12.28;65.42
4326;BME280;58429;49.826;10.880;2023-06-14T03:15:46;98387;;;12.26;65.4
4326;BME280;58429;49.826;10.880;2023-06-14T03:16:45;98389;;;12.26;65.24
4326;BME280;58429;49.826;10.880;2023-06-14T03:17:46;98391;;;12.28;65.16
4326;BME280;58429;49.826;10.880;2023-06-14T03:18:46;98395;;;12.24;65.37
4326;BME280;58429;49.826;10.880;2023-06-14T03:19:46;98392;;;12.23;65.59
4326;BME280;58429;49.826;10.880;2023-06-14T03:20:46;98395;;;12.25;65.48
4326;BME280;58429;49.826;10.880;2023-06-14T03:21:46;98394;;;12.28;65.38
4326;BME280;58429;49.826;10.880;2023-06-14T03:22:46;98393;;;12.28;65.66
4326;BME280;58429;49.826;10.880;2023-06-14T03:23:46;98395;;;12.25;65.51
4326;BME280;58429;49.826;10.880;2023-06-14T03:24:46;98392;;;12.27;65.66
4326;BME280;58429;49.826;10.880;2023-06-14T03:25:46;98392;;;12.28;65.59
4326;BME280;58429;49.826;10.880;2023-06-14T03:26:46;98395;;;12.24;65.64
4326;BME280;58429;49.826;10.880;2023-06-14T03:27:46;98398;;;12.29;65.64
4326;BME280;58429;49.826;10.880;2023-06-14T03:28:46;98402;;;12.26;65.72
4326;BME280;58429;49.826;10.880;2023-06-14T03:29:46;98400;;;12.24;65.78
4326;BME280;58429;49.826;10.880;2023-06-14T03:30:46;98405;;;12.22;65.63
4326;BME280;58429;49.826;10.880;2023-06-14T03:31:56;98411;;;12.25;65.68
4326;BME280;58429;49.826;10.880;2023-06-14T03:32:46;98407;;;12.24;65.89
4326;BME280;58429;49.826;10.880;2023-06-14T03:33:46;98417;;;12.21;65.85
4326;BME280;58429;49.826;10.880;2023-06-14T03:34:46;98414;;;12.25;65.72
4326;BME280;58429;49.826;10.880;2023-06-14T03:35:46;98418;;;12.3;65.42
4326;BME280;58429;49.826;10.880;2023-06-14T03:36:46;98412;;;12.3;65.48
4326;BME280;58429;49.826;10.880;2023-06-14T03:37:51;98417;;;12.29;65.57
4326;BME280;58429;49.826;10.880;2023-06-14T03:38:46;98419;;;12.22;65.53
4326;BME280;58429;49.826;10.880;2023-06-14T03:39:46;98417;;;12.26;65.35
4326;BME280;58429;49.826;10.880;2023-06-14T03:40:46;98413;;;12.26;65.29
4326;BME280;58429;49.826;10.880;2023-06-14T03:41:46;98410;;;12.22;65.27
4326;BME280;58429;49.826;10.880;2023-06-14T03:42:46;98407;;;12.21;65.19
4326;BME280;58429;49.826;10.880;2023-06-14T03:43:46;98406;;;12.19;65.3
4326;BME280;58429;49.826;10.880;2023-06-14T03:44:46;98412;;;12.21;65.32
4326;BME280;58429;49.826;10.880;2023-06-14T03:45:46;98412;;;12.16;65.57
4326;BME280;58429;49.826;10.880;2023-06-14T03:46:46;98414;;;12.2;65.68
4326;BME280;58429;49.826;10.880;2023-06-14T03:47:46;98415;;;12.19;65.85
4326;BME280;58429;49.826;10.880;2023-06-14T03:48:46;98414;;;12.17;65.86
4326;BME280;58429;49.826;10.880;2023-06-14T03:49:46;98420;;;12.18;66.09
4326;BME280;58429;49.826;10.880;2023-06-14T03:50:46;98418;;;12.15;66.26
4326;BME280;58429;49.826;10.880;2023-06-14T03:51:46;98423;;;12.17;66.61
4326;BME280;58429;49.826;10.880;2023-06-14T03:52:47;98421;;;12.13;66.61
4326;BME280;58429;49.826;10.880;2023-06-14T03:53:46;98428;;;12.18;66.42
4326;BME280;58429;49.826;10.880;2023-06-14T03:54:46;98429;;;12.21;66.71
4326;BME280;58429;49.826;10.880;2023-06-14T03:55:46;98434;;;12.17;66.76
4326;BME280;58429;49.826;10.880;2023-06-14T03:56:46;98433;;;12.16;67.01
4326;BME280;58429;49.826;10.880;2023-06-14T03:57:46;98434;;;12.14;66.87
4326;BME280;58429;49.826;10.880;2023-06-14T03:58:46;98434;;;12.18;67.12
4326;BME280;58429;49.826;10.880;2023-06-14T03:59:46;98439;;;12.18;66.77
4326;BME280;58429;49.826;10.880;2023-06-14T04:00:46;98437;;;12.19;66.7
4326;BME280;58429;49.826;10.880;2023-06-14T04:01:46;98436;;;12.24;66.78
4326;BME280;58429;49.826;10.880;2023-06-14T04:02:46;98435;;;12.2;67.21
4326;BME280;58429;49.826;10.880;2023-06-14T04:03:46;98431;;;12.26;67.16
4326;BME280;58429;49.826;10.880;2023-06-14T04:04:46;98433;;;12.26;67.26
4326;BME280;58429;49.826;10.880;2023-06-14T04:05:46;98436;;;12.28;67.19
4326;BME280;58429;49.826;10.880;2023-06-14T04:06:46;98432;;;12.32;66.99
4326;BME280;58429;49.826;10.880;2023-06-14T04:07:46;98436;;;12.32;66.98
4326;BME280;58429;49.826;10.880;2023-06-14T04:08:46;98437;;;12.32;66.82
4326;BME280;58429;49.826;10.880;2023-06-14T04:09:46;98437;;;12.34;66.8
4326;BME280;58429;49.826;10.880;2023-06-14T04:10:46;98441;;;12.34;66.78
4326;BME280;58429;49.826;10.880;2023-06-14T04:11:46;98432;;;12.35;67.07
4326;BME280;58429;49.826;10.880;2023-06-14T04:12:46;98435;;;12.33;67.67
4326;BME280;58429;49.826;10.880;2023-06-14T04:13:46;98439;;;12.3;67.57
4326;BME280;58429;49.826;10.880;2023-06-14T04:14:46;98444;;;12.3;68
4326;BME280;58429;49.826;10.880;2023-06-14T04:15:46;98446;;;12.23;67.55
4326;BME280;58429;49.826;10.880;2023-06-14T04:16:46;98446;;;12.21;67.99
4326;BME280;58429;49.826;10.880;2023-06-14T04:17:46;98450;;;12.16;68.36
4326;BME280;58429;49.826;10.880;2023-06-14T04:18:46;98446;;;12.13;68.27
4326;BME280;58429;49.826;10.880;2023-06-14T04:19:46;98455;;;12.1;68.55
4326;BME280;58429;49.826;10.880;2023-06-14T04:20:46;98451;;;12.08;68.84
4326;BME280;58429;49.826;10.880;2023-06-14T04:21:46;98443;;;12.05;68.54
4326;BME280;58429;49.826;10.880;2023-06-14T04:22:46;98444;;;12.12;68.41
4326;BME280;58429;49.826;10.880;2023-06-14T04:23:46;98452;;;12.13;68.55
4326;BME280;58429;49.826;10.880;2023-06-14T04:24:46;98452;;;12.14;68.24
4326;BME280;58429;49.826;10.880;2023-06-14T04:25:46;98449;;;12.22;68.45
4326;BME280;58429;49.826;10.880;2023-06-14T04:26:51;98451;;;12.21;68.25
4326;BME280;58429;49.826;10.880;2023-06-14T04:27:46;98454;;;12.29;68.51
4326;BME280;58429;49.826;10.880;2023-06-14T04:28:46;98444;;;12.28;68.47
4326;BME280;58429;49.826;10.880;2023-06-14T04:29:46;98456;;;12.31;68.26
4326;BME280;58429;49.826;10.880;2023-06-14T04:30:46;98457;;;12.34;68.11
4326;BME280;58429;49.826;10.880;2023-06-14T04:31:46;98459;;;12.36;68.01
4326;BME280;58429;49.826;10.880;2023-06-14T04:32:46;98456;;;12.34;67.97
4326;BME280;58429;49.826;10.880;2023-06-14T04:33:46;98452;;;12.39;68.04
4326;BME280;58429;49.826;10.880;2023-06-14T04:34:46;98453;;;12.42;67.78
4326;BME280;58429;49.826;10.880;2023-06-14T04:35:47;98461;;;12.46;67.64
4326;BME280;58429;49.826;10.880;2023-06-14T04:36:46;98458;;;12.57;67.58
4326;BME280;58429;49.826;10.880;2023-06-14T04:37:46;98460;;;12.6;67.43
4326;BME280;58429;49.826;10.880;2023-06-14T04:38:46;98459;;;12.65;67.65
4326;BME280;58429;49.826;10.880;2023-06-14T04:39:46;98464;;;12.65;67.77
4326;BME280;58429;49.826;10.880;2023-06-14T04:40:46;98462;;;12.71;67.84
4326;BME280;58429;49.826;10.880;2023-06-14T04:41:46;98469;;;12.72;68.09
4326;BME280;58429;49.826;10.880;2023-06-14T04:42:46;98459;;;12.71;68.19
4326;BME280;58429;49.826;10.880;2023-06-14T04:43:46;98461;;;12.77;68.03
4326;BME280;58429;49.826;10.880;2023-06-14T04:44:46;98464;;;12.84;68.13
4326;BME280;58429;49.826;10.880;2023-06-14T04:45:46;98463;;;12.81;68.49
4326;BME280;58429;49.826;10.880;2023-06-14T04:46:46;98465;;;12.8;68.44
4326;BME280;58429;49.826;10.880;2023-06-14T04:47:46;98465;;;12.84;68.36
4326;BME280;58429;49.826;10.880;2023-06-14T04:48:46;98471;;;12.86;68.65
4326;BME280;58429;49.826;10.880;2023-06-14T04:49:46;98466;;;12.86;68.35
4326;BME280;58429;49.826;10.880;2023-06-14T04:50:46;98466;;;12.88;68.43
4326;BME280;58429;49.826;10.880;2023-06-14T04:51:46;98464;;;12.89;68.65
4326;BME280;58429;49.826;10.880;2023-06-14T04:52:46;98468;;;12.93;68.83
4326;BME280;58429;49.826;10.880;2023-06-14T04:53:46;98470;;;12.98;68.89
4326;BME280;58429;49.826;10.880;2023-06-14T04:54:46;98464;;;13.01;68.94
4326;BME280;58429;49.826;10.880;2023-06-14T04:55:46;98467;;;13.03;69.03
4326;BME280;58429;49.826;10.880;2023-06-14T04:56:46;98463;;;13.07;68.73
4326;BME280;58429;49.826;10.880;2023-06-14T04:57:46;98467;;;13.07;68.59
4326;BME280;58429;49.826;10.880;2023-06-14T04:58:46;98468;;;13.12;68.59
4326;BME280;58429;49.826;10.880;2023-06-14T04:59:46;98468;;;13.16;68.29
4326;BME280;58429;49.826;10.880;2023-06-14T05:00:46;98472;;;13.22;68.21
4326;BME280;58429;49.826;10.880;2023-06-14T05:01:46;98469;;;13.26;68.15
4326;BME280;58429;49.826;10.880;2023-06-14T05:02:46;98464;;;13.28;68.05
4326;BME280;58429;49.826;10.880;2023-06-14T05:03:46;98469;;;13.34;68.09
4326;BME280;58429;49.826;10.880;2023-06-14T05:04:46;98465;;;13.34;67.95
4326;BME280;58429;49.826;10.880;2023-06-14T05:05:46;98471;;;13.36;67.64
4326;BME280;58429;49.826;10.880;2023-06-14T05:06:46;98466;;;13.4;67.57
4326;BME280;58429;49.826;10.880;2023-06-14T05:07:46;98473;;;13.44;67.7
4326;BME280;58429;49.826;10.880;2023-06-14T05:08:46;98471;;;13.47;67.62
4326;BME280;58429;49.826;10.880;2023-06-14T05:09:46;98469;;;13.53;67.32
4326;BME280;58429;49.826;10.880;2023-06-14T05:10:46;98474;;;13.54;67.4
4326;BME280;58429;49.826;10.880;2023-06-14T05:11:46;98472;;;13.61;67.78
4326;BME280;58429;49.826;10.880;2023-06-14T05:12:46;98469;;;13.64;67.79
4326;BME280;58429;49.826;10.880;2023-06-14T05:13:46;98475;;;13.66;67.5
4326;BME280;58429;49.826;10.880;2023-06-14T05:14:46;98477;;;13.7;67.92
4326;BME280;58429;49.826;10.880;2023-06-14T05:15:46;98475;;;13.67;67.55
4326;BME280;58429;49.826;10.880;2023-06-14T05:16:46;98475;;;13.77;67.82
4326;BME280;58429;49.826;10.880;2023-06-14T05:17:46;98471;;;13.81;67.54
4326;BME280;58429;49.826;10.880;2023-06-14T05:18:46;98477;;;13.79;67.36
4326;BME280;58429;49.826;10.880;2023-06-14T05:19:46;98478;;;13.85;67.26
4326;BME280;58429;49.826;10.880;2023-06-14T05:20:46;98476;;;13.87;67.27
4326;BME280;58429;49.826;10.880;2023-06-14T05:21:46;98472;;;13.88;67.97
4326;BME280;58429;49.826;10.880;2023-06-14T05:22:46;98472;;;13.9;68.35
4326;BME280;58429;49.826;10.880;2023-06-14T05:23:46;98469;;;13.96;68.42
4326;BME280;58429;49.826;10.880;2023-06-14T05:24:46;98466;;;14.06;68.35
4326;BME280;58429;49.826;10.880;2023-06-14T05:25:46;98476;;;14.09;68.39
4326;BME280;58429;49.826;10.880;2023-06-14T05:26:46;98472;;;14.16;68.22
4326;BME280;58429;49.826;10.880;2023-06-14T05:27:46;98468;;;14.21;68.27
4326;BME280;58429;49.826;10.880;2023-06-14T05:28:46;98472;;;14.32;67.69
4326;BME280;58429;49.826;10.880;2023-06-14T05:29:46;98470;;;14.33;67.46
4326;BME280;58429;49.826;10.880;2023-06-14T05:30:46;98470;;;14.36;67.19
4326;BME280;58429;49.826;10.880;2023-06-14T05:31:46;98472;;;14.38;67.2